AirNav   TITAN Aviation Fuels
 
 917 users online  

NE08 Larrabee Farm Airport
Lamar, Nebraska, USA

GOING TO LAMAR?


FAA INFORMATION EFFECTIVE 03 NOVEMBER 2022

Location

FAA Identifier: NE08
Lat/Long: 40-32-51.9800N 101-58-41.6500W
40-32.866333N 101-58.694167W
40.5477722,-101.9782361
(estimated)
Elevation: 3518 ft. / 1072 m (estimated)
Variation: 09E (1995)
From city: 2 miles S of LAMAR, NE
Time zone: UTC -7 (UTC -6 during Daylight Saving Time)
Zip code: 69023

Airport Operations

Airport use: Private use. Permission required prior to landing
Activation date: 12/1997
Control tower: no
ARTCC: DENVER CENTER
FSS: COLUMBUS FLIGHT SERVICE STATION
Attendance: UNATNDD
Wind indicator: yes
Segmented circle: no

Airport Communications

WX AWOS-3 at HEQ (13 nm W): 119.275 (970-854-3679)
WX ASOS at IML (16 nm E): 124.175 (308-882-5186)

Nearby radio navigation aids

VOR radial/distance  VOR name  Freq  Var
SAEr188/35.5SEARLE VOR/DME110.2007E

 
NDB name  Hdg/Dist  Freq  Var  ID
GRANT201/22.435909EGGF --. --. ..-.
CHAPPELL135/38.538310ECNP -.-. -. .--.

Airport Services

Runway Information

Runway 17/35

Dimensions: 1000 x 45 ft. / 305 x 14 m
Surface: turf
RUNWAY 17  RUNWAY 35
Traffic pattern: leftleft

Airport Ownership and Management from official FAA records

Ownership: Privately-owned
Owner: JOEY LARRABEE
31421 740 RD
LAMAR, NE 69023
Phone 405-990-3992
Manager: JOEY LARRABEE
31421 740 RD
LAMAR, NE 69023
Phone 405-990-3992

Airport Operational Statistics

Aircraft based on the field: 1
Single engine airplanes: 1
    

Additional Remarks

FOR CD CTC DENVER ARTCC AT 303-651-4257.

Instrument Procedures

There are no published instrument procedures at NE08.

Some nearby airports with instrument procedures:

KHEQ - Holyoke Airport (13 nm W)
KIML - Imperial Municipal Airport (16 nm E)
KGGF - Grant Municipal Airport (22 nm NE)
2V5 - Wray Municipal Airport (29 nm SW)
KOGA - Searle Field Airport (36 nm N)
 
Loc | Ops | Rwys | IFR | FBO | Links
Com | Nav | Svcs | Stats | Notes

AirBoss

 
Area around NE08 (Larrabee Farm Airport)
 
Road maps at: MapQuest Bing Google
 
Aerial photo
No photo
 
Sectional chart

 
Airport distance calculator
Flying to Larrabee Farm Airport? Find the distance to fly.

From to NE08

Sunrise and sunset
Times for 30-Nov-2022
 Local
(UTC-7)
 Zulu
(UTC)
Morning civil twilight06:2213:22
Sunrise06:5213:52
Sunset16:2123:21
Evening civil twilight16:5123:51

Current date and time
Zulu (UTC)  01-Dec-2022 03:15:44
Local (UTC-7)  30-Nov-2022 20:15:44
 
METAR
KHEQ 
13nm W 
010255Z AUTO 16010KT 10SM CLR M02/M07 A3003 RMK AO2
KIML 
17nm E 
010253Z AUTO 15015KT 10SM CLR M04/M10 A3006 RMK AO2 SLP226 T10391100 58017
KGGF 
22nm NE 
010255Z AUTO 16016KT 10SM CLR M03/M09 A3004 RMK AO2
TAF
NOTAMs
Click for the latest NOTAMs
NOTAMs are issued by the DoD/FAA and will open in a separate window not controlled by AirNav.

 

 
 

Would you like to see your business listed on this page?

 If your business provides an interesting product or service to pilots, flight crews, aircraft, or users of the Larrabee Farm Airport, you should consider listing it here.  To start the listing process, click on the button below
 
Add a business
 

Other Pages about Larrabee Farm Airport

Update a link
 
Copyright © AirNav, LLC. All rights reserved. Privacy Policy  Contact